createdAt,value
2019-05-10T00:00:26.000Z,282.15
2019-05-10T00:02:27.000Z,282.15
2019-05-10T00:03:49.000Z,282.15
2019-05-10T00:05:50.000Z,282.15
2019-05-10T00:07:12.000Z,282.15
2019-05-10T00:09:13.000Z,282.21
2019-05-10T00:10:38.000Z,282.21
2019-05-10T00:12:41.000Z,282.21
2019-05-10T00:14:04.000Z,282.21
2019-05-10T00:16:08.000Z,282.21
2019-05-10T00:17:30.000Z,282.21
2019-05-10T00:19:33.000Z,282.27
2019-05-10T00:20:57.000Z,282.27
2019-05-10T00:23:00.000Z,282.27
2019-05-10T00:24:23.000Z,282.21
2019-05-10T00:26:24.000Z,282.27
2019-05-10T00:27:48.000Z,282.27
2019-05-10T00:29:49.000Z,282.27
2019-05-10T00:31:14.000Z,282.27
2019-05-10T00:33:16.000Z,282.27
2019-05-10T00:34:39.000Z,282.34
2019-05-10T00:36:40.000Z,282.27
2019-05-10T00:38:07.000Z,282.27
2019-05-10T00:40:13.000Z,282.27
2019-05-10T00:41:40.000Z,282.27
2019-05-10T00:43:43.000Z,282.27
2019-05-10T00:45:07.000Z,282.27
2019-05-10T00:47:09.000Z,282.27
2019-05-10T00:48:31.000Z,282.27
2019-05-10T00:50:35.000Z,282.27
2019-05-10T00:51:58.000Z,282.27
2019-05-10T00:54:03.000Z,282.27
2019-05-10T00:55:34.000Z,282.27
2019-05-10T00:57:36.000Z,282.27
2019-05-10T00:59:05.000Z,282.27
2019-05-10T01:01:08.000Z,282.27
2019-05-10T01:02:32.000Z,282.27
2019-05-10T01:04:39.000Z,282.27
2019-05-10T01:06:04.000Z,282.27
2019-05-10T01:08:06.000Z,282.27
2019-05-10T01:09:29.000Z,282.34
2019-05-10T01:11:34.000Z,282.34
2019-05-10T01:13:00.000Z,282.34
2019-05-10T01:15:06.000Z,282.34
2019-05-10T01:16:31.000Z,282.34
2019-05-10T01:18:35.000Z,282.34
2019-05-10T01:20:03.000Z,282.34
2019-05-10T01:22:08.000Z,282.34
2019-05-10T01:23:35.000Z,282.34
2019-05-10T01:25:40.000Z,282.34
2019-05-10T01:27:06.000Z,282.27
2019-05-10T01:29:11.000Z,282.27
2019-05-10T01:30:35.000Z,282.21
2019-05-10T01:32:41.000Z,282.21
2019-05-10T01:34:11.000Z,282.27
2019-05-10T01:36:17.000Z,282.27
2019-05-10T01:37:42.000Z,282.27
2019-05-10T01:39:54.000Z,282.27
2019-05-10T01:41:19.000Z,282.21
2019-05-10T01:43:24.000Z,282.15
2019-05-10T01:44:50.000Z,282.15
2019-05-10T01:46:58.000Z,282.09
2019-05-10T01:48:24.000Z,282.02
2019-05-10T01:50:26.000Z,282.02
2019-05-10T01:51:52.000Z,282.02
2019-05-10T01:53:59.000Z,281.9
2019-05-10T01:55:21.000Z,281.84
2019-05-10T01:57:25.000Z,281.71
2019-05-10T01:58:50.000Z,281.71
2019-05-10T02:00:58.000Z,281.71
2019-05-10T02:02:27.000Z,281.65
2019-05-10T02:04:32.000Z,281.59
2019-05-10T02:05:58.000Z,281.59
2019-05-10T02:08:03.000Z,281.65
2019-05-10T02:09:28.000Z,281.71
2019-05-10T02:11:35.000Z,281.65
2019-05-10T02:13:00.000Z,281.71
2019-05-10T02:15:08.000Z,281.65
2019-05-10T02:16:32.000Z,281.65
2019-05-10T02:18:42.000Z,281.71
2019-05-10T02:20:06.000Z,281.71
2019-05-10T02:22:08.000Z,281.71
2019-05-10T02:23:36.000Z,281.71
2019-05-10T02:25:41.000Z,281.71
2019-05-10T02:27:09.000Z,281.65
2019-05-10T02:29:19.000Z,281.65
2019-05-10T02:30:52.000Z,281.59
2019-05-10T02:32:57.000Z,281.52
2019-05-10T02:34:28.000Z,281.52
2019-05-10T02:36:37.000Z,281.46
2019-05-10T02:38:05.000Z,281.46
2019-05-10T02:40:12.000Z,281.52
2019-05-10T02:41:42.000Z,281.59
2019-05-10T02:43:50.000Z,281.59
2019-05-10T02:45:14.000Z,281.59
2019-05-10T02:47:25.000Z,281.59
2019-05-10T02:48:52.000Z,281.65
2019-05-10T02:51:05.000Z,281.59
2019-05-10T02:52:31.000Z,281.59
2019-05-10T02:54:45.000Z,281.65
2019-05-10T02:56:22.000Z,281.65
2019-05-10T02:58:41.000Z,281.71
2019-05-10T03:00:12.000Z,281.77
2019-05-10T03:02:21.000Z,281.77
2019-05-10T03:03:52.000Z,281.71
2019-05-10T03:06:08.000Z,281.71
2019-05-10T03:07:41.000Z,281.71
2019-05-10T03:09:55.000Z,281.77
2019-05-10T03:11:27.000Z,281.84
2019-05-10T03:13:37.000Z,281.77
2019-05-10T03:15:10.000Z,281.71
2019-05-10T03:17:19.000Z,281.71
2019-05-10T03:18:49.000Z,281.71
2019-05-10T03:21:00.000Z,281.71
2019-05-10T03:22:34.000Z,281.71
2019-05-10T03:24:49.000Z,281.65
2019-05-10T03:26:21.000Z,281.59
2019-05-10T03:28:34.000Z,281.65
2019-05-10T03:30:00.000Z,281.65
2019-05-10T03:32:11.000Z,281.65
2019-05-10T03:33:44.000Z,281.71
2019-05-10T03:36:03.000Z,281.71
2019-05-10T03:37:33.000Z,281.71
2019-05-10T03:39:46.000Z,281.71
2019-05-10T03:41:14.000Z,281.77
2019-05-10T03:48:36.000Z,281.65
2019-05-10T03:49:58.000Z,281.71
2019-05-10T03:51:59.000Z,281.65
2019-05-10T03:53:21.000Z,281.65
2019-05-10T03:55:22.000Z,281.59
2019-05-10T03:56:44.000Z,281.59
2019-05-10T03:58:45.000Z,281.46
2019-05-10T04:00:07.000Z,281.4
2019-05-10T04:02:08.000Z,281.4
2019-05-10T04:03:30.000Z,281.46
2019-05-10T04:05:34.000Z,281.4
2019-05-10T04:06:56.000Z,281.4
2019-05-10T04:08:58.000Z,281.27
2019-05-10T04:10:20.000Z,281.21
2019-05-10T04:12:21.000Z,281.21
2019-05-10T04:13:43.000Z,281.27
2019-05-10T04:15:44.000Z,281.21
2019-05-10T04:17:06.000Z,281.21
2019-05-10T04:19:09.000Z,281.21
2019-05-10T04:20:31.000Z,281.21
2019-05-10T04:22:33.000Z,281.21
2019-05-10T04:23:56.000Z,281.27
2019-05-10T04:25:58.000Z,281.34
2019-05-10T04:27:20.000Z,281.34
2019-05-10T04:29:32.000Z,281.34
2019-05-10T04:30:55.000Z,281.4
2019-05-10T04:32:59.000Z,281.4
2019-05-10T04:34:25.000Z,281.46
2019-05-10T04:36:28.000Z,281.46
2019-05-10T04:37:51.000Z,281.52
2019-05-10T04:39:53.000Z,281.59
2019-05-10T04:41:15.000Z,281.59
2019-05-10T04:43:18.000Z,281.59
2019-05-10T04:44:44.000Z,281.59
2019-05-10T04:46:46.000Z,281.65
2019-05-10T04:48:09.000Z,281.71
2019-05-10T04:50:12.000Z,281.71
2019-05-10T04:51:35.000Z,281.71
2019-05-10T04:53:38.000Z,281.71
2019-05-10T04:55:01.000Z,281.71
2019-05-10T04:57:04.000Z,281.71
2019-05-10T04:58:27.000Z,281.77
2019-05-10T05:00:30.000Z,281.84
2019-05-10T05:01:52.000Z,281.9
2019-05-10T05:03:54.000Z,281.9
2019-05-10T05:05:19.000Z,281.9
2019-05-10T05:07:20.000Z,281.96
2019-05-10T05:08:42.000Z,281.96
2019-05-10T05:10:44.000Z,281.96
2019-05-10T05:12:08.000Z,282.02
2019-05-10T05:14:09.000Z,281.96
2019-05-10T05:15:32.000Z,282.02
2019-05-10T05:17:35.000Z,282.02
2019-05-10T05:18:59.000Z,282.02
2019-05-10T05:21:01.000Z,282.09
2019-05-10T05:22:24.000Z,282.02
2019-05-10T05:24:29.000Z,282.09
2019-05-10T05:25:51.000Z,282.15
2019-05-10T05:27:52.000Z,282.15
2019-05-10T05:29:29.000Z,282.21
2019-05-10T05:31:30.000Z,282.15
2019-05-10T05:32:54.000Z,282.15
2019-05-10T05:34:56.000Z,282.15
2019-05-10T05:36:19.000Z,282.15
2019-05-10T05:38:23.000Z,282.21
2019-05-10T05:39:49.000Z,282.21
2019-05-10T05:41:51.000Z,282.21
2019-05-10T05:43:19.000Z,282.21
2019-05-10T05:45:24.000Z,282.21
2019-05-10T05:46:55.000Z,282.21
2019-05-10T05:49:04.000Z,282.21
2019-05-10T05:50:28.000Z,282.27
2019-05-10T05:52:34.000Z,282.34
2019-05-10T05:53:56.000Z,282.34
2019-05-10T05:56:03.000Z,282.4
2019-05-10T05:57:35.000Z,282.46
2019-05-10T05:59:41.000Z,282.46
2019-05-10T06:01:04.000Z,282.4
2019-05-10T06:03:08.000Z,282.4
2019-05-10T06:04:37.000Z,282.4
2019-05-10T06:06:46.000Z,282.4
2019-05-10T06:08:10.000Z,282.52
2019-05-10T06:10:26.000Z,282.84
2019-05-10T06:11:48.000Z,283.09
2019-05-10T06:13:58.000Z,283.09
2019-05-10T06:15:34.000Z,283.09
2019-05-10T06:17:41.000Z,283.27
2019-05-10T06:19:05.000Z,283.4
2019-05-10T06:21:10.000Z,283.71
2019-05-10T06:22:47.000Z,283.96
2019-05-10T06:25:08.000Z,283.71
2019-05-10T06:26:32.000Z,283.52
2019-05-10T06:28:41.000Z,283.4
2019-05-10T06:30:21.000Z,283.46
2019-05-10T06:32:28.000Z,283.4
2019-05-10T06:33:53.000Z,283.4
2019-05-10T06:35:58.000Z,283.34
2019-05-10T06:37:22.000Z,283.4
2019-05-10T06:39:25.000Z,283.65
2019-05-10T06:40:52.000Z,283.77
2019-05-10T06:42:55.000Z,283.9
2019-05-10T06:44:28.000Z,283.84
2019-05-10T06:46:36.000Z,283.9
2019-05-10T06:48:09.000Z,283.84
2019-05-10T06:50:14.000Z,283.77
2019-05-10T06:51:39.000Z,283.71
2019-05-10T06:53:49.000Z,283.46
2019-05-10T06:55:17.000Z,283.34
2019-05-10T06:57:22.000Z,283.27
2019-05-10T06:58:50.000Z,283.27
2019-05-10T07:00:56.000Z,283.21
2019-05-10T07:02:24.000Z,283.4
2019-05-10T07:04:38.000Z,283.9
2019-05-10T07:06:03.000Z,284.09
2019-05-10T07:08:14.000Z,284.02
2019-05-10T07:09:45.000Z,284.02
2019-05-10T07:12:11.000Z,283.96
2019-05-10T07:13:37.000Z,283.96
2019-05-10T07:15:49.000Z,283.96
2019-05-10T07:17:17.000Z,283.84
2019-05-10T07:19:25.000Z,283.77
2019-05-10T07:20:52.000Z,283.59
2019-05-10T07:22:55.000Z,283.52
2019-05-10T07:24:28.000Z,283.52
2019-05-10T07:26:37.000Z,283.46
2019-05-10T07:28:06.000Z,283.4
2019-05-10T07:30:23.000Z,283.4
2019-05-10T07:31:50.000Z,283.52
2019-05-10T07:33:59.000Z,283.59
2019-05-10T07:35:33.000Z,283.65
2019-05-10T07:37:50.000Z,283.9
2019-05-10T07:39:17.000Z,283.77
2019-05-10T07:41:23.000Z,283.71
2019-05-10T07:42:55.000Z,283.71
2019-05-10T07:45:05.000Z,283.71
2019-05-10T07:46:38.000Z,283.59
2019-05-10T07:48:57.000Z,283.59
2019-05-10T07:50:25.000Z,283.52
2019-05-10T07:52:34.000Z,283.59
2019-05-10T07:54:10.000Z,283.59
2019-05-10T07:56:25.000Z,283.59
2019-05-10T07:57:52.000Z,283.59
2019-05-10T08:00:13.000Z,283.65
2019-05-10T08:01:45.000Z,283.65
2019-05-10T08:03:56.000Z,283.65
2019-05-10T08:05:27.000Z,283.77
2019-05-10T08:07:42.000Z,283.71
2019-05-10T08:09:10.000Z,283.59
2019-05-10T08:11:26.000Z,283.46
2019-05-10T08:13:00.000Z,283.46
2019-05-10T08:15:13.000Z,283.46
2019-05-10T08:16:39.000Z,283.46
2019-05-10T08:18:50.000Z,283.46
2019-05-10T08:20:28.000Z,283.52
2019-05-10T08:22:59.000Z,283.52
2019-05-10T08:24:32.000Z,283.65
2019-05-10T08:26:45.000Z,283.71
2019-05-10T08:28:15.000Z,283.84
2019-05-10T08:30:21.000Z,284.09
2019-05-10T08:31:54.000Z,284.09
2019-05-10T08:34:04.000Z,284.27
2019-05-10T08:35:34.000Z,284.4
2019-05-10T08:37:49.000Z,284.46
2019-05-10T08:39:19.000Z,284.4
2019-05-10T08:46:41.000Z,284.4
2019-05-10T08:48:04.000Z,284.4
2019-05-10T08:50:11.000Z,284.21
2019-05-10T08:52:04.000Z,284.27
2019-05-10T08:54:05.000Z,284.21
2019-05-10T08:55:28.000Z,284.15
2019-05-10T08:57:31.000Z,284.15
2019-05-10T08:59:03.000Z,284.15
2019-05-10T09:01:13.000Z,284.27
2019-05-10T09:02:47.000Z,284.46
2019-05-10T09:04:51.000Z,284.59
2019-05-10T09:06:13.000Z,284.59
2019-05-10T09:08:16.000Z,284.84
2019-05-10T09:09:41.000Z,284.96
2019-05-10T09:11:50.000Z,284.96
2019-05-10T09:13:22.000Z,284.96
2019-05-10T09:15:32.000Z,285.02
2019-05-10T09:16:54.000Z,285.02
2019-05-10T09:19:03.000Z,285.15
2019-05-10T09:20:25.000Z,285.34
2019-05-10T09:22:28.000Z,285.15
2019-05-10T09:24:00.000Z,285.21
2019-05-10T09:26:05.000Z,285.52
2019-05-10T09:27:36.000Z,285.65
2019-05-10T09:29:36.000Z,285.52
2019-05-10T09:30:59.000Z,285.52
2019-05-10T09:33:21.000Z,285.65
2019-05-10T09:34:44.000Z,285.71
2019-05-10T09:36:46.000Z,285.46
2019-05-10T09:38:10.000Z,285.52
2019-05-10T09:40:11.000Z,285.65
2019-05-10T09:41:34.000Z,285.65
2019-05-10T09:43:39.000Z,285.52
2019-05-10T09:45:11.000Z,285.46
2019-05-10T09:47:13.000Z,285.46
2019-05-10T09:48:35.000Z,285.52
2019-05-10T09:50:36.000Z,285.65
2019-05-10T09:52:06.000Z,285.9
2019-05-10T09:54:13.000Z,285.96
2019-05-10T09:55:35.000Z,286.15
2019-05-10T09:57:37.000Z,286.21
2019-05-10T09:59:01.000Z,286.21
2019-05-10T10:01:04.000Z,286.15
2019-05-10T10:02:38.000Z,285.96
2019-05-10T10:04:41.000Z,285.9
2019-05-10T10:06:05.000Z,286.02
2019-05-10T10:08:10.000Z,286.02
2019-05-10T10:09:33.000Z,285.96
2019-05-10T10:11:43.000Z,285.96
2019-05-10T10:13:21.000Z,285.77
2019-05-10T10:15:39.000Z,285.65
2019-05-10T10:17:04.000Z,285.65
2019-05-10T10:19:08.000Z,285.96
2019-05-10T10:20:32.000Z,286.09
2019-05-10T10:22:41.000Z,286.46
2019-05-10T10:24:13.000Z,287.09
2019-05-10T10:26:19.000Z,287.46
2019-05-10T10:27:42.000Z,287.46
2019-05-10T10:29:45.000Z,287.27
2019-05-10T10:31:10.000Z,287.21
2019-05-10T10:33:31.000Z,286.65
2019-05-10T10:34:54.000Z,286.65
2019-05-10T10:37:01.000Z,286.52
2019-05-10T10:38:24.000Z,286.4
2019-05-10T10:40:35.000Z,286.34
2019-05-10T10:42:07.000Z,286.27
2019-05-10T10:44:12.000Z,286.27
2019-05-10T10:45:39.000Z,286.4
2019-05-10T10:47:42.000Z,286.4
2019-05-10T10:49:08.000Z,286.4
2019-05-10T10:51:15.000Z,286.46
2019-05-10T10:52:39.000Z,286.46
2019-05-10T10:54:44.000Z,286.4
2019-05-10T10:56:10.000Z,286.27
2019-05-10T10:58:12.000Z,286.21
2019-05-10T10:59:35.000Z,286.15
2019-05-10T11:01:42.000Z,286.27
2019-05-10T11:03:19.000Z,286.34
2019-05-10T11:05:30.000Z,286.27
2019-05-10T11:06:58.000Z,286.34
2019-05-10T11:09:15.000Z,286.27
2019-05-10T11:10:44.000Z,286.34
2019-05-10T11:12:47.000Z,286.27
2019-05-10T11:14:12.000Z,286.4
2019-05-10T11:16:17.000Z,286.65
2019-05-10T11:17:44.000Z,286.71
2019-05-10T11:19:46.000Z,286.96
2019-05-10T11:21:11.000Z,286.9
2019-05-10T11:23:12.000Z,286.84
2019-05-10T11:24:39.000Z,286.96
2019-05-10T11:26:46.000Z,287.21
2019-05-10T11:28:11.000Z,287.15
2019-05-10T11:30:22.000Z,287.21
2019-05-10T11:31:48.000Z,287.34
2019-05-10T11:34:20.000Z,287.34
2019-05-10T11:35:45.000Z,287.4
2019-05-10T11:37:49.000Z,287.34
2019-05-10T11:39:15.000Z,287.52
2019-05-10T11:41:28.000Z,288.15
2019-05-10T11:42:55.000Z,288.34
2019-05-10T11:45:04.000Z,288.02
2019-05-10T11:46:31.000Z,287.59
2019-05-10T11:48:37.000Z,287.59
2019-05-10T11:50:09.000Z,287.84
2019-05-10T11:52:33.000Z,287.34
2019-05-10T11:54:01.000Z,287.59
2019-05-10T11:56:08.000Z,287.46
2019-05-10T11:59:54.000Z,287.59
2019-05-10T12:01:19.000Z,287.34
2019-05-10T12:03:26.000Z,287.21
2019-05-10T12:04:56.000Z,286.84
2019-05-10T12:07:15.000Z,286.52
2019-05-10T12:08:56.000Z,286.71
2019-05-10T12:11:09.000Z,286.59
2019-05-10T12:12:57.000Z,286.65
2019-05-10T12:15:21.000Z,287.27
2019-05-10T12:16:48.000Z,287.46
2019-05-10T12:19:04.000Z,287.52
2019-05-10T12:22:37.000Z,287.59
2019-05-10T12:24:58.000Z,287.84
2019-05-10T12:26:54.000Z,288.02
2019-05-10T12:29:35.000Z,288.59
2019-05-10T12:31:01.000Z,288.65
2019-05-10T12:33:16.000Z,288.65
2019-05-10T12:35:00.000Z,288.65
2019-05-10T12:37:08.000Z,288.84
2019-05-10T12:38:39.000Z,288.96
2019-05-10T12:40:46.000Z,289.52
2019-05-10T12:42:16.000Z,288.84
2019-05-10T12:44:27.000Z,289.15
2019-05-10T12:45:58.000Z,289.34
2019-05-10T12:48:07.000Z,289.15
2019-05-10T12:49:37.000Z,289.27
2019-05-10T12:53:20.000Z,289.02
2019-05-10T12:59:08.000Z,289.15
2019-05-10T13:00:30.000Z,288.9
2019-05-10T13:02:31.000Z,288.71
2019-05-10T13:03:53.000Z,288.77
2019-05-10T13:05:55.000Z,289.15
2019-05-10T13:07:17.000Z,289.09
2019-05-10T13:09:23.000Z,289.02
2019-05-10T13:11:01.000Z,289.02
2019-05-10T13:13:03.000Z,289.59
2019-05-10T13:14:24.000Z,289.52
2019-05-10T13:16:28.000Z,289.4
2019-05-10T13:17:52.000Z,289.77
2019-05-10T13:19:53.000Z,289.96
2019-05-10T13:21:19.000Z,289.96
2019-05-10T13:23:22.000Z,289.46
2019-05-10T13:24:45.000Z,288.77
2019-05-10T13:26:47.000Z,288.65
2019-05-10T13:28:12.000Z,288.71
2019-05-10T13:30:14.000Z,288.71
2019-05-10T13:31:36.000Z,288.71
2019-05-10T13:33:43.000Z,289.27
2019-05-10T13:35:05.000Z,289.65
2019-05-10T13:37:06.000Z,289.09
2019-05-10T13:38:41.000Z,288.9
2019-05-10T13:40:49.000Z,288.52
2019-05-10T13:42:12.000Z,288.52
2019-05-10T13:44:13.000Z,288.27
2019-05-10T13:45:36.000Z,288.27
2019-05-10T13:47:38.000Z,288.34
2019-05-10T13:49:00.000Z,288.27
2019-05-10T13:51:01.000Z,288.27
2019-05-10T13:52:23.000Z,288.02
2019-05-10T13:54:38.000Z,288.02
2019-05-10T13:56:00.000Z,288.09
2019-05-10T13:58:01.000Z,287.96
2019-05-10T13:59:24.000Z,288.02
2019-05-10T14:01:27.000Z,288.02
2019-05-10T14:02:49.000Z,288.15
2019-05-10T14:04:51.000Z,287.9
2019-05-10T14:06:13.000Z,288.02
2019-05-10T14:08:15.000Z,288.21
2019-05-10T14:09:38.000Z,288.27
2019-05-10T14:11:41.000Z,288.59
2019-05-10T14:13:07.000Z,288.65
2019-05-10T14:15:10.000Z,288.65
2019-05-10T14:16:34.000Z,288.52
2019-05-10T14:18:36.000Z,288.52
2019-05-10T14:19:58.000Z,288.52
2019-05-10T14:21:59.000Z,288.84
2019-05-10T14:23:22.000Z,289.09
2019-05-10T14:25:33.000Z,289.09
2019-05-10T14:26:58.000Z,289.65
2019-05-10T14:29:00.000Z,290.21
2019-05-10T14:30:23.000Z,289.96
2019-05-10T14:32:24.000Z,289.77
2019-05-10T14:33:47.000Z,289.46
2019-05-10T14:36:18.000Z,289.09
2019-05-10T14:37:42.000Z,288.84
2019-05-10T14:39:48.000Z,288.9
2019-05-10T14:41:13.000Z,289.34
2019-05-10T14:43:14.000Z,289.59
2019-05-10T14:44:37.000Z,289.96
2019-05-10T14:46:38.000Z,289.46
2019-05-10T14:48:01.000Z,289.27
2019-05-10T14:50:06.000Z,288.9
2019-05-10T14:51:29.000Z,288.71
2019-05-10T14:53:57.000Z,288.46
2019-05-10T14:55:30.000Z,288.77
2019-05-10T14:57:39.000Z,288.59
2019-05-10T14:59:02.000Z,288.59
2019-05-10T15:01:08.000Z,288.65
2019-05-10T15:02:32.000Z,288.96
2019-05-10T15:04:38.000Z,289.46
2019-05-10T15:06:13.000Z,289.71
2019-05-10T15:08:18.000Z,289.59
2019-05-10T15:09:45.000Z,289.52
2019-05-10T15:11:46.000Z,289.52
2019-05-10T15:13:08.000Z,289.15
2019-05-10T15:15:10.000Z,289.02
2019-05-10T15:16:36.000Z,288.59
2019-05-10T15:18:38.000Z,288.84
2019-05-10T15:20:02.000Z,288.84
2019-05-10T15:22:07.000Z,288.77
2019-05-10T15:23:31.000Z,288.9
2019-05-10T15:25:33.000Z,289.27
2019-05-10T15:26:56.000Z,289.4
2019-05-10T15:29:00.000Z,289.15
2019-05-10T15:30:27.000Z,288.84
2019-05-10T15:32:33.000Z,289.65
2019-05-10T15:33:57.000Z,289.77
2019-05-10T15:36:06.000Z,289.21
2019-05-10T15:37:33.000Z,289.34
2019-05-10T15:39:47.000Z,289.27
2019-05-10T15:41:11.000Z,289.59
2019-05-10T15:43:25.000Z,289.84
2019-05-10T15:44:54.000Z,289.65
2019-05-10T15:46:56.000Z,289.65
2019-05-10T15:48:24.000Z,289.52
2019-05-10T15:50:33.000Z,289.84
2019-05-10T15:54:01.000Z,290.02
2019-05-10T15:56:12.000Z,289.9
2019-05-10T15:57:42.000Z,290.15
2019-05-10T15:59:51.000Z,289.96
2019-05-10T16:01:20.000Z,290.15
2019-05-10T16:03:45.000Z,290.09
2019-05-10T16:05:08.000Z,290.09
2019-05-10T16:07:38.000Z,290.09
2019-05-10T16:09:17.000Z,290.15
2019-05-10T16:19:19.000Z,290.21
2019-05-10T16:21:25.000Z,290.02
2019-05-10T16:21:59.000Z,290.09
2019-05-10T16:23:21.000Z,289.96
2019-05-10T16:25:22.000Z,289.52
2019-05-10T16:26:44.000Z,289.59
2019-05-10T16:28:45.000Z,289.96
2019-05-10T16:30:06.000Z,289.96
2019-05-10T16:32:16.000Z,289.65
2019-05-10T16:33:38.000Z,289.27
2019-05-10T16:35:38.000Z,289.46
2019-05-10T16:37:08.000Z,289.4
2019-05-10T16:39:09.000Z,288.96
2019-05-10T16:40:31.000Z,289.09
2019-05-10T16:42:32.000Z,289.77
2019-05-10T16:43:55.000Z,289.71
2019-05-10T16:45:59.000Z,289.77
2019-05-10T16:47:22.000Z,289.4
2019-05-10T16:49:23.000Z,289.34
2019-05-10T16:50:45.000Z,289.21
2019-05-10T16:52:46.000Z,289.02
2019-05-10T16:54:09.000Z,288.71
2019-05-10T16:56:12.000Z,288.4
2019-05-10T16:57:40.000Z,288.46
2019-05-10T16:59:41.000Z,288.52
2019-05-10T17:01:03.000Z,288.4
2019-05-10T17:03:07.000Z,288.4
2019-05-10T17:04:37.000Z,288.4
2019-05-10T17:06:39.000Z,288.15
2019-05-10T17:08:02.000Z,288.21
2019-05-10T17:10:03.000Z,288.15
2019-05-10T17:11:25.000Z,288.21
2019-05-10T17:13:28.000Z,288.09
2019-05-10T17:14:52.000Z,288.02
2019-05-10T17:16:58.000Z,288.27
2019-05-10T17:18:22.000Z,288.34
2019-05-10T17:20:24.000Z,288.27
2019-05-10T17:21:46.000Z,288.27
2019-05-10T17:23:48.000Z,288.4
2019-05-10T17:25:11.000Z,288.65
2019-05-10T17:27:11.000Z,288.77
2019-05-10T17:28:34.000Z,288.59
2019-05-10T17:30:37.000Z,288.59
2019-05-10T17:32:01.000Z,288.46
2019-05-10T17:34:04.000Z,288.27
2019-05-10T17:35:26.000Z,288.02
2019-05-10T17:37:27.000Z,287.9
2019-05-10T17:38:56.000Z,287.77
2019-05-10T17:40:59.000Z,287.59
2019-05-10T17:42:21.000Z,287.77
2019-05-10T17:44:24.000Z,287.65
2019-05-10T17:45:46.000Z,287.4
2019-05-10T17:47:48.000Z,287.4
2019-05-10T17:49:11.000Z,287.34
2019-05-10T17:52:51.000Z,287.4
2019-05-10T17:53:24.000Z,287.27
2019-05-10T17:54:50.000Z,287.09
2019-05-10T17:56:57.000Z,286.84
2019-05-10T17:58:20.000Z,286.84
2019-05-10T18:00:34.000Z,286.9
2019-05-10T18:01:56.000Z,286.96
2019-05-10T18:03:58.000Z,286.84
2019-05-10T18:05:22.000Z,286.84
2019-05-10T18:07:25.000Z,286.77
2019-05-10T18:08:48.000Z,286.77
2019-05-10T18:10:51.000Z,286.59
2019-05-10T18:12:26.000Z,286.52
2019-05-10T18:14:29.000Z,286.52
2019-05-10T18:15:56.000Z,286.59
2019-05-10T18:18:01.000Z,286.52
2019-05-10T18:19:25.000Z,286.34
2019-05-10T18:21:26.000Z,286.15
2019-05-10T18:22:52.000Z,286.09
2019-05-10T18:24:56.000Z,285.96
2019-05-10T18:26:18.000Z,286.09
2019-05-10T18:28:26.000Z,286.02
2019-05-10T18:29:50.000Z,285.96
2019-05-10T18:31:54.000Z,285.71
2019-05-10T18:33:19.000Z,285.65
2019-05-10T18:36:57.000Z,285.59
2019-05-10T18:37:48.000Z,285.27
2019-05-10T18:39:19.000Z,285.27
2019-05-10T18:41:24.000Z,285.27
2019-05-10T18:42:56.000Z,285.21
2019-05-10T18:45:09.000Z,285.09
2019-05-10T18:46:36.000Z,284.96
2019-05-10T18:48:38.000Z,284.9
2019-05-10T18:50:02.000Z,284.84
2019-05-10T18:52:09.000Z,284.65
2019-05-10T18:53:37.000Z,284.84
2019-05-10T18:55:47.000Z,284.84
2019-05-10T18:57:13.000Z,284.71
2019-05-10T18:59:26.000Z,284.46
2019-05-10T19:00:54.000Z,284.34
2019-05-10T19:03:04.000Z,284.27
2019-05-10T19:04:27.000Z,284.15
2019-05-10T19:06:33.000Z,283.96
2019-05-10T19:08:04.000Z,283.96
2019-05-10T19:10:07.000Z,283.9
2019-05-10T19:11:31.000Z,283.9
2019-05-10T19:13:44.000Z,283.77
2019-05-10T19:15:18.000Z,283.71
2019-05-10T19:17:23.000Z,283.59
2019-05-10T19:18:50.000Z,283.46
2019-05-10T19:21:05.000Z,283.65
2019-05-10T19:22:31.000Z,283.52
2019-05-10T19:24:36.000Z,283.4
2019-05-10T19:26:02.000Z,283.4
2019-05-10T19:28:08.000Z,283.59
2019-05-10T19:29:33.000Z,283.65
2019-05-10T19:31:53.000Z,283.4
2019-05-10T19:33:22.000Z,283.27
2019-05-10T19:35:40.000Z,283.15
2019-05-10T19:37:10.000Z,283.15
2019-05-10T19:39:34.000Z,283.02
2019-05-10T19:41:01.000Z,283.02
2019-05-10T19:43:05.000Z,283.02
2019-05-10T19:44:35.000Z,283.02
2019-05-10T19:46:49.000Z,282.9
2019-05-10T19:48:14.000Z,282.9
2019-05-10T19:51:55.000Z,282.9
2019-05-10T19:54:02.000Z,282.77
2019-05-10T19:55:32.000Z,282.77
2019-05-10T19:57:36.000Z,282.71
2019-05-10T19:59:06.000Z,282.71
2019-05-10T20:01:22.000Z,282.71
2019-05-10T20:02:56.000Z,282.71
2019-05-10T20:05:01.000Z,282.65
2019-05-10T20:06:28.000Z,282.77
2019-05-10T20:08:40.000Z,282.9
2019-05-10T20:10:10.000Z,282.9
2019-05-10T20:12:20.000Z,282.71
2019-05-10T20:13:47.000Z,282.59
2019-05-10T20:15:54.000Z,282.65
2019-05-10T20:17:22.000Z,282.59
2019-05-10T20:19:31.000Z,282.46
2019-05-10T20:21:01.000Z,282.34
2019-05-10T20:23:06.000Z,282.21
2019-05-10T20:24:37.000Z,282.21
2019-05-10T20:26:44.000Z,282.21
2019-05-10T20:28:16.000Z,282.21
2019-05-10T20:30:26.000Z,282.21
2019-05-10T20:31:56.000Z,282.27
2019-05-10T20:34:06.000Z,282.27
2019-05-10T20:35:35.000Z,282.27
2019-05-10T20:39:19.000Z,282.27
2019-05-10T20:40:09.000Z,282.21
2019-05-10T20:41:34.000Z,282.34
2019-05-10T20:43:46.000Z,282.27
2019-05-10T20:45:18.000Z,282.27
2019-05-10T20:47:32.000Z,282.27
2019-05-10T20:49:06.000Z,282.27
2019-05-10T20:51:22.000Z,282.27
2019-05-10T20:52:51.000Z,282.34
2019-05-10T20:55:01.000Z,282.34
2019-05-10T20:56:33.000Z,282.34
2019-05-10T20:58:51.000Z,282.34
2019-05-10T21:00:20.000Z,282.34
2019-05-10T21:07:48.000Z,282.4
2019-05-10T21:09:10.000Z,282.46
2019-05-10T21:11:12.000Z,282.34
2019-05-10T21:12:34.000Z,282.34
2019-05-10T21:14:35.000Z,282.34
2019-05-10T21:15:58.000Z,282.27
2019-05-10T21:17:59.000Z,282.4
2019-05-10T21:19:21.000Z,282.4
2019-05-10T21:21:24.000Z,282.52
2019-05-10T21:22:46.000Z,282.4
2019-05-10T21:24:48.000Z,282.4
2019-05-10T21:26:10.000Z,282.34
2019-05-10T21:28:11.000Z,282.09
2019-05-10T21:29:33.000Z,282.09
2019-05-10T21:31:34.000Z,282.02
2019-05-10T21:32:56.000Z,282.02
2019-05-10T21:34:57.000Z,282.02
2019-05-10T21:36:19.000Z,282.09
2019-05-10T21:38:20.000Z,282.15
2019-05-10T21:39:53.000Z,282.09
2019-05-10T21:41:55.000Z,282.27
2019-05-10T21:43:17.000Z,282.34
2019-05-10T21:45:18.000Z,282.4
2019-05-10T21:46:41.000Z,282.46
2019-05-10T21:48:43.000Z,282.4
2019-05-10T21:50:05.000Z,282.34
2019-05-10T21:52:05.000Z,282.34
2019-05-10T21:53:28.000Z,282.34
2019-05-10T21:55:29.000Z,282.09
2019-05-10T21:56:52.000Z,282.09
2019-05-10T21:58:53.000Z,282.09
2019-05-10T22:00:16.000Z,282.02
2019-05-10T22:02:18.000Z,281.9
2019-05-10T22:03:40.000Z,281.84
2019-05-10T22:05:42.000Z,281.71
2019-05-10T22:07:05.000Z,281.71
2019-05-10T22:09:06.000Z,281.65
2019-05-10T22:10:28.000Z,281.59
2019-05-10T22:12:30.000Z,281.59
2019-05-10T22:13:52.000Z,281.65
2019-05-10T22:15:54.000Z,281.71
2019-05-10T22:17:16.000Z,281.71
2019-05-10T22:19:17.000Z,281.77
2019-05-10T22:20:40.000Z,281.65
2019-05-10T22:22:42.000Z,281.71
2019-05-10T22:24:05.000Z,281.59
2019-05-10T22:26:07.000Z,281.46
2019-05-10T22:27:30.000Z,281.52
2019-05-10T22:29:33.000Z,281.65
2019-05-10T22:30:58.000Z,281.65
2019-05-10T22:32:59.000Z,281.52
2019-05-10T22:34:22.000Z,281.46
2019-05-10T22:36:24.000Z,281.46
2019-05-10T22:37:46.000Z,281.52
2019-05-10T22:39:50.000Z,281.59
2019-05-10T22:41:13.000Z,281.46
2019-05-10T22:43:17.000Z,281.4
2019-05-10T22:50:39.000Z,281.34
2019-05-10T22:52:01.000Z,281.27
2019-05-10T22:54:02.000Z,281.15
2019-05-10T22:55:25.000Z,281.15
2019-05-10T22:57:26.000Z,281.09
2019-05-10T22:58:48.000Z,281.09